createdAt,value
2019-03-26T00:01:06.324Z,97390.74
2019-03-26T00:02:14.322Z,97390.69
2019-03-26T00:03:22.403Z,97392.81
2019-03-26T00:04:30.393Z,97391.84
2019-03-26T00:05:38.383Z,97387.98
2019-03-26T00:06:46.464Z,97391.00
2019-03-26T00:07:54.574Z,97389.27
2019-03-26T00:09:02.565Z,97387.55
2019-03-26T00:10:11.051Z,97391.79
2019-03-26T00:11:19.056Z,97390.11
2019-03-26T00:12:27.062Z,97390.55
2019-03-26T00:13:36.076Z,97390.55
2019-03-26T00:14:45.129Z,97385.42
2019-03-26T00:15:53.121Z,97394.41
2019-03-26T00:17:01.110Z,97395.69
2019-03-26T00:18:09.206Z,97396.14
2019-03-26T00:19:17.212Z,97395.69
2019-03-26T00:20:25.278Z,97400.47
2019-03-26T00:21:33.343Z,97407.83
2019-03-26T00:22:41.335Z,97407.04
2019-03-26T00:23:49.312Z,97404.13
2019-03-26T00:24:57.346Z,97405.86
2019-03-26T00:26:05.340Z,97402.89
2019-03-26T00:27:13.343Z,97404.58
2019-03-26T00:28:21.322Z,97400.28
2019-03-26T00:29:29.400Z,97410.94
2019-03-26T00:30:37.405Z,97406.20
2019-03-26T00:31:45.518Z,97405.76
2019-03-26T00:32:53.552Z,97404.08
2019-03-26T00:34:01.558Z,97409.22
2019-03-26T00:35:10.464Z,97410.94
2019-03-26T00:36:18.468Z,97416.92
2019-03-26T00:37:26.460Z,97416.52
2019-03-26T00:38:34.576Z,97418.75
2019-03-26T00:39:42.718Z,97420.48
2019-03-26T00:40:50.717Z,97423.05
2019-03-26T00:41:58.694Z,97423.05
2019-03-26T00:43:06.686Z,97428.58
2019-03-26T00:44:14.707Z,97429.81
2019-03-26T00:45:22.710Z,97433.61
2019-03-26T00:46:30.702Z,97430.55
2019-03-26T00:47:38.707Z,97430.11
2019-03-26T00:48:46.719Z,97430.81
2019-03-26T00:49:54.752Z,97428.19
2019-03-26T00:51:02.762Z,97430.66
2019-03-26T00:52:10.746Z,97433.96
2019-03-26T00:53:18.736Z,97434.80
2019-03-26T00:54:26.749Z,97438.16
2019-03-26T00:55:34.762Z,97438.55
2019-03-26T00:56:42.740Z,97435.91
2019-03-26T00:57:50.729Z,97442.27
2019-03-26T00:58:58.777Z,97436.69
2019-03-26T01:00:08.316Z,97439.66
2019-03-26T01:01:16.518Z,97440.44
2019-03-26T01:02:24.570Z,97434.85
2019-03-26T01:03:32.664Z,97438.70
2019-03-26T01:04:40.655Z,97440.39
2019-03-26T01:05:48.647Z,97442.95
2019-03-26T01:06:56.651Z,97444.69
2019-03-26T01:08:04.657Z,97440.05
2019-03-26T01:09:12.692Z,97445.23
2019-03-26T01:10:29.475Z,97450.87
2019-03-26T01:11:38.341Z,97441.13
2019-03-26T01:12:46.326Z,97446.02
2019-03-26T01:13:54.348Z,97446.95
2019-03-26T01:15:02.325Z,97442.77
2019-03-26T01:16:11.500Z,97446.75
2019-03-26T01:17:19.505Z,97446.01
2019-03-26T01:18:27.511Z,97446.55
2019-03-26T01:19:35.502Z,97447.05
2019-03-26T01:20:43.673Z,97446.34
2019-03-26T01:21:51.679Z,97444.70
2019-03-26T01:22:59.669Z,97444.31
2019-03-26T01:24:07.675Z,97441.84
2019-03-26T01:25:15.696Z,97448.31
2019-03-26T01:26:23.687Z,97446.23
2019-03-26T01:27:31.679Z,97446.23
2019-03-26T01:28:39.668Z,97445.08
2019-03-26T01:29:47.696Z,97440.84
2019-03-26T01:30:55.696Z,97443.45
2019-03-26T01:32:03.734Z,97444.78
2019-03-26T01:33:11.712Z,97440.14
2019-03-26T01:34:19.765Z,97439.75
2019-03-26T01:35:27.854Z,97442.36
2019-03-26T01:36:35.862Z,97441.20
2019-03-26T01:37:43.850Z,97429.70
2019-03-26T01:38:51.873Z,97432.81
2019-03-26T01:39:59.864Z,97432.91
2019-03-26T01:41:07.882Z,97439.37
2019-03-26T01:42:15.934Z,97430.52
2019-03-26T01:43:23.924Z,97430.61
2019-03-26T01:44:31.945Z,97436.68
2019-03-26T01:45:39.951Z,97437.17
2019-03-26T01:46:48.037Z,97437.27
2019-03-26T01:47:56.054Z,97437.34
2019-03-26T01:49:04.046Z,97443.80
2019-03-26T01:50:12.443Z,97439.60
2019-03-26T01:51:20.436Z,97436.24
2019-03-26T01:52:28.437Z,97437.13
2019-03-26T01:53:36.428Z,97440.19
2019-03-26T01:54:44.439Z,97433.42
2019-03-26T01:55:52.442Z,97439.91
2019-03-26T01:57:00.446Z,97440.41
2019-03-26T01:58:08.482Z,97440.89
2019-03-26T01:59:16.505Z,97444.78
2019-03-26T02:00:24.510Z,97444.78
2019-03-26T02:01:32.487Z,97450.80
2019-03-26T02:02:40.626Z,97446.16
2019-03-26T02:03:48.630Z,97451.73
2019-03-26T02:05:00.365Z,97453.97
2019-03-26T02:06:06.582Z,97461.70
2019-03-26T02:07:14.584Z,97455.34
2019-03-26T02:08:22.605Z,97456.27
2019-03-26T02:09:30.626Z,97454.19
2019-03-26T02:10:38.646Z,97455.48
2019-03-26T02:11:46.758Z,97457.11
2019-03-26T02:12:54.899Z,97459.23
2019-03-26T02:14:02.905Z,97469.05
2019-03-26T02:15:14.303Z,97465.20
2019-03-26T02:16:22.306Z,97467.33
2019-03-26T02:17:30.299Z,97462.23
2019-03-26T02:18:38.334Z,97458.79
2019-03-26T02:19:46.323Z,97457.51
2019-03-26T02:20:54.344Z,97463.03
2019-03-26T02:22:02.321Z,97459.63
2019-03-26T02:23:10.493Z,97461.75
2019-03-26T02:24:18.482Z,97466.44
2019-03-26T02:25:26.536Z,97459.23
2019-03-26T02:26:34.523Z,97463.52
2019-03-26T02:27:42.696Z,97458.44
2019-03-26T02:28:50.688Z,97468.30
2019-03-26T02:29:58.603Z,97459.77
2019-03-26T02:31:06.596Z,97462.77
2019-03-26T02:32:14.599Z,97459.37
2019-03-26T02:33:22.618Z,97460.25
2019-03-26T02:34:30.674Z,97459.85
2019-03-26T02:35:38.675Z,97465.42
2019-03-26T02:36:46.686Z,97459.09
2019-03-26T02:37:54.732Z,97465.09
2019-03-26T02:39:05.604Z,97471.06
2019-03-26T02:40:13.627Z,97474.52
2019-03-26T02:41:21.691Z,97471.99
2019-03-26T02:42:29.703Z,97469.47
2019-03-26T02:43:37.732Z,97470.80
2019-03-26T02:44:45.759Z,97469.12
2019-03-26T02:45:53.775Z,97476.41
2019-03-26T02:47:01.769Z,97474.73
2019-03-26T02:48:09.800Z,97475.61
2019-03-26T02:49:17.796Z,97482.06
2019-03-26T02:50:26.927Z,97481.30
2019-03-26T02:51:34.942Z,97480.91
2019-03-26T02:52:42.950Z,97483.06
2019-03-26T02:53:50.941Z,97488.19
2019-03-26T02:54:58.967Z,97491.20
2019-03-26T02:56:07.041Z,97489.48
2019-03-26T02:57:15.050Z,97486.48
2019-03-26T02:58:23.038Z,97486.48
2019-03-26T02:59:31.043Z,97488.20
2019-03-26T03:00:39.021Z,97488.20
2019-03-26T03:01:47.147Z,97497.22
2019-03-26T03:02:55.225Z,97504.02
2019-03-26T03:04:03.219Z,97503.19
2019-03-26T03:05:11.299Z,97502.73
2019-03-26T03:06:19.305Z,97509.14
2019-03-26T03:07:27.341Z,97505.30
2019-03-26T03:08:35.404Z,97502.73
2019-03-26T03:09:43.396Z,97513.39
2019-03-26T03:10:52.560Z,97509.99
2019-03-26T03:12:00.670Z,97509.99
2019-03-26T03:13:08.885Z,97516.44
2019-03-26T03:14:17.087Z,97513.92
2019-03-26T03:15:25.076Z,97520.33
2019-03-26T03:16:33.145Z,97513.08
2019-03-26T03:17:41.131Z,97520.29
2019-03-26T03:18:49.213Z,97517.23
2019-03-26T03:19:57.236Z,97518.52
2019-03-26T03:21:05.225Z,97516.39
2019-03-26T03:22:13.247Z,97518.07
2019-03-26T03:23:21.251Z,97513.34
2019-03-26T03:24:29.266Z,97515.47
2019-03-26T03:25:37.278Z,97517.63
2019-03-26T03:26:45.343Z,97520.20
2019-03-26T03:27:53.377Z,97519.80
2019-03-26T03:29:01.351Z,97519.84
2019-03-26T03:30:10.037Z,97520.69
2019-03-26T03:31:18.027Z,97518.20
2019-03-26T03:32:26.086Z,97524.22
2019-03-26T03:33:34.073Z,97518.29
2019-03-26T03:34:42.067Z,97520.92
2019-03-26T03:35:52.608Z,97521.36
2019-03-26T03:36:59.748Z,97523.93
2019-03-26T03:38:07.740Z,97527.33
2019-03-26T03:39:15.769Z,97525.61
2019-03-26T03:40:23.765Z,97518.36
2019-03-26T03:41:31.787Z,97520.48
2019-03-26T03:42:39.870Z,97529.82
2019-03-26T03:43:47.875Z,97537.95
2019-03-26T03:44:55.881Z,97538.02
2019-03-26T03:46:04.327Z,97540.59
2019-03-26T03:47:16.604Z,97538.91
2019-03-26T03:48:25.403Z,97547.44
2019-03-26T03:49:34.157Z,97540.23
2019-03-26T03:50:44.983Z,97542.39
2019-03-26T03:51:56.948Z,97542.43
2019-03-26T03:53:06.740Z,97536.50
2019-03-26T03:54:15.542Z,97547.23
2019-03-26T03:55:23.748Z,97538.81
2019-03-26T03:56:34.390Z,97540.14
2019-03-26T03:57:42.469Z,97541.45
2019-03-26T03:58:52.818Z,97545.34
2019-03-26T04:00:03.731Z,97545.34
2019-03-26T04:01:11.767Z,97545.38
2019-03-26T04:02:19.803Z,97549.22
2019-03-26T04:03:27.802Z,97545.38
2019-03-26T04:04:35.786Z,97550.47
2019-03-26T04:05:43.760Z,97547.86
2019-03-26T04:06:51.750Z,97545.70
2019-03-26T04:07:59.801Z,97546.55
2019-03-26T04:09:08.931Z,97543.98
2019-03-26T04:10:16.925Z,97540.58
2019-03-26T04:11:24.912Z,97545.30
2019-03-26T04:12:32.936Z,97543.62
2019-03-26T04:13:41.007Z,97547.50
2019-03-26T04:14:48.974Z,97548.78
2019-03-26T04:15:57.031Z,97547.50
2019-03-26T04:17:04.989Z,97558.16
2019-03-26T04:18:12.996Z,97558.11
2019-03-26T04:19:21.056Z,97561.95
2019-03-26T04:20:29.062Z,97559.39
2019-03-26T04:21:37.090Z,97565.77
2019-03-26T04:22:45.074Z,97563.67
2019-03-26T04:23:53.082Z,97562.80
2019-03-26T04:25:01.058Z,97561.12
2019-03-26T04:26:09.053Z,97559.83
2019-03-26T04:27:17.037Z,97557.31
2019-03-26T04:28:25.045Z,97556.91
2019-03-26T04:29:33.065Z,97559.07
2019-03-26T04:30:41.072Z,97556.95
2019-03-26T04:31:49.077Z,97558.67
2019-03-26T04:32:57.052Z,97558.23
2019-03-26T04:34:05.058Z,97560.31
2019-03-26T04:35:13.078Z,97556.88
2019-03-26T04:36:26.153Z,97555.99
2019-03-26T04:37:31.928Z,97563.23
2019-03-26T04:38:39.932Z,97563.67
2019-03-26T04:39:47.911Z,97566.20
2019-03-26T04:40:55.943Z,97565.77
2019-03-26T04:42:04.030Z,97567.84
2019-03-26T04:43:12.028Z,97572.45
2019-03-26T04:44:20.079Z,97567.73
2019-03-26T04:45:28.129Z,97570.66
2019-03-26T04:46:36.150Z,97569.34
2019-03-26T04:47:44.157Z,97569.73
2019-03-26T04:48:52.189Z,97565.90
2019-03-26T04:50:00.357Z,97576.14
2019-03-26T04:51:09.554Z,97563.33
2019-03-26T04:52:17.573Z,97565.90
2019-03-26T04:53:25.599Z,97571.86
2019-03-26T04:54:33.525Z,97568.90
2019-03-26T04:55:41.518Z,97563.33
2019-03-26T04:56:49.492Z,97569.70
2019-03-26T04:57:57.528Z,97556.41
2019-03-26T04:59:05.563Z,97556.80
2019-03-26T05:00:14.576Z,97562.27
2019-03-26T05:01:22.568Z,97556.25
2019-03-26T05:02:30.542Z,97560.50
2019-03-26T05:03:38.967Z,97563.86
2019-03-26T05:04:46.986Z,97562.58
2019-03-26T05:05:54.977Z,97560.82
2019-03-26T05:07:02.999Z,97565.50
2019-03-26T05:08:10.995Z,97566.73
2019-03-26T05:09:18.965Z,97570.14
2019-03-26T05:10:27.019Z,97571.75
2019-03-26T05:11:34.991Z,97578.52
2019-03-26T05:12:42.982Z,97572.11
2019-03-26T05:13:50.987Z,97577.60
2019-03-26T05:14:58.978Z,97576.32
2019-03-26T05:16:06.984Z,97579.33
2019-03-26T05:17:14.976Z,97582.29
2019-03-26T05:18:24.061Z,97583.13
2019-03-26T05:19:32.055Z,97582.69
2019-03-26T05:20:40.048Z,97582.20
2019-03-26T05:21:48.085Z,97586.89
2019-03-26T05:22:56.099Z,97580.45
2019-03-26T05:24:04.121Z,97584.22
2019-03-26T05:25:12.416Z,97586.34
2019-03-26T05:26:20.417Z,97583.81
2019-03-26T05:27:28.411Z,97588.50
2019-03-26T05:28:37.388Z,97585.17
2019-03-26T05:29:45.429Z,97587.78
2019-03-26T05:31:20.501Z,97586.09
2019-03-26T05:32:28.542Z,97586.53
2019-03-26T05:33:36.527Z,97591.58
2019-03-26T05:34:44.557Z,97591.58
2019-03-26T05:35:52.542Z,97591.13
2019-03-26T05:37:00.564Z,97598.27
2019-03-26T05:38:08.612Z,97607.56
2019-03-26T05:39:16.847Z,97605.77
2019-03-26T05:40:24.849Z,97607.37
2019-03-26T05:41:32.854Z,97602.53
2019-03-26T05:42:41.131Z,97602.84
2019-03-26T05:43:49.122Z,97603.61
2019-03-26T05:44:57.145Z,97608.14
2019-03-26T05:46:05.167Z,97599.52
2019-03-26T05:47:13.156Z,97604.17
2019-03-26T05:48:22.216Z,97609.22
2019-03-26T05:49:30.239Z,97607.41
2019-03-26T05:50:38.239Z,97609.98
2019-03-26T05:51:46.245Z,97611.27
2019-03-26T05:52:54.251Z,97611.27
2019-03-26T05:54:03.337Z,97610.90
2019-03-26T05:55:12.364Z,97613.50
2019-03-26T05:56:20.355Z,97608.02
2019-03-26T05:57:28.389Z,97615.75
2019-03-26T05:58:36.400Z,97615.39
2019-03-26T05:59:44.381Z,97615.87
2019-03-26T06:00:52.379Z,97610.34
2019-03-26T06:02:13.213Z,97620.67
2019-03-26T06:03:10.144Z,97617.71
2019-03-26T06:04:18.107Z,97618.19
2019-03-26T06:05:26.115Z,97616.52
2019-03-26T06:06:34.125Z,97620.76
2019-03-26T06:07:42.112Z,97619.92
2019-03-26T06:08:50.123Z,97620.80
2019-03-26T06:09:58.123Z,97621.20
2019-03-26T06:11:06.129Z,97625.05
2019-03-26T06:12:14.150Z,97625.00
2019-03-26T06:13:22.201Z,97623.28
2019-03-26T06:14:30.327Z,97623.72
2019-03-26T06:15:38.320Z,97623.61
2019-03-26T06:16:46.342Z,97627.02
2019-03-26T06:17:57.371Z,97623.61
2019-03-26T06:19:04.170Z,97629.58
2019-03-26T06:20:12.894Z,97632.50
2019-03-26T06:21:20.900Z,97626.53
2019-03-26T06:22:29.459Z,97634.62
2019-03-26T06:23:37.454Z,97632.87
2019-03-26T06:24:45.481Z,97632.42
2019-03-26T06:25:53.498Z,97630.70
2019-03-26T06:27:01.531Z,97634.95
2019-03-26T06:28:09.597Z,97637.52
2019-03-26T06:29:17.590Z,97637.52
2019-03-26T06:30:25.684Z,97630.66
2019-03-26T06:31:33.691Z,97640.48
2019-03-26T06:32:41.701Z,97635.35
2019-03-26T06:33:50.782Z,97640.48
2019-03-26T06:34:58.759Z,97639.20
2019-03-26T06:36:07.831Z,97638.76
2019-03-26T06:37:18.113Z,97634.91
2019-03-26T06:38:25.614Z,97640.48
2019-03-26T06:39:33.637Z,97635.35
2019-03-26T06:40:41.625Z,97640.48
2019-03-26T06:41:49.646Z,97637.44
2019-03-26T06:42:57.638Z,97639.05
2019-03-26T06:44:05.661Z,97641.53
2019-03-26T06:45:14.971Z,97642.28
2019-03-26T06:46:23.002Z,97638.36
2019-03-26T06:47:31.012Z,97640.80
2019-03-26T06:48:39.124Z,97642.00
2019-03-26T06:49:47.115Z,97641.96
2019-03-26T06:50:55.151Z,97638.91
2019-03-26T06:52:04.136Z,97645.28
2019-03-26T06:53:12.168Z,97641.83
2019-03-26T06:54:20.160Z,97639.67
2019-03-26T06:55:28.244Z,97640.95
2019-03-26T06:56:36.232Z,97640.88
2019-03-26T06:57:44.358Z,97641.67
2019-03-26T06:58:52.379Z,97642.08
2019-03-26T07:00:00.387Z,97653.58
2019-03-26T07:01:08.407Z,97653.98
2019-03-26T07:02:16.518Z,97653.09
2019-03-26T07:03:24.555Z,97650.53
2019-03-26T07:04:32.560Z,97655.22
2019-03-26T07:05:40.551Z,97652.22
2019-03-26T07:06:48.557Z,97651.77
2019-03-26T07:07:56.565Z,97656.91
2019-03-26T07:09:07.947Z,97662.48
2019-03-26T07:10:20.092Z,97667.17
2019-03-26T07:11:28.090Z,97669.34
2019-03-26T07:12:36.149Z,97663.80
2019-03-26T07:13:44.149Z,97662.52
2019-03-26T07:14:52.177Z,97662.48
2019-03-26T07:16:00.183Z,97672.27
2019-03-26T07:17:08.174Z,97670.50
2019-03-26T07:18:16.207Z,97674.72
2019-03-26T07:19:24.200Z,97674.27
2019-03-26T07:20:32.309Z,97678.48
2019-03-26T07:21:49.543Z,97672.95
2019-03-26T07:22:52.101Z,97671.62
2019-03-26T07:24:00.117Z,97672.46
2019-03-26T07:25:09.819Z,97673.70
2019-03-26T07:26:18.807Z,97681.41
2019-03-26T07:27:26.891Z,97687.73
2019-03-26T07:28:34.866Z,97680.39
2019-03-26T07:29:42.871Z,97680.72
2019-03-26T07:30:51.402Z,97678.98
2019-03-26T07:32:01.058Z,97679.34
2019-03-26T07:33:09.631Z,97683.59
2019-03-26T07:34:17.656Z,97684.00
2019-03-26T07:35:25.662Z,97688.69
2019-03-26T07:36:33.701Z,97689.48
2019-03-26T07:37:45.466Z,97686.08
2019-03-26T07:38:51.483Z,97687.72
2019-03-26T07:39:59.477Z,97691.13
2019-03-26T07:41:07.501Z,97685.11
2019-03-26T07:42:15.515Z,97685.47
2019-03-26T07:43:23.760Z,97682.81
2019-03-26T07:44:32.206Z,97685.34
2019-03-26T07:45:40.328Z,97682.73
2019-03-26T07:46:48.247Z,97689.11
2019-03-26T07:47:56.249Z,97686.05
2019-03-26T07:49:04.286Z,97683.87
2019-03-26T07:50:14.011Z,97689.41
2019-03-26T07:51:22.128Z,97687.66
2019-03-26T07:52:30.138Z,97688.50
2019-03-26T07:53:38.158Z,97691.06
2019-03-26T07:54:46.177Z,97688.50
2019-03-26T07:55:54.230Z,97690.18
2019-03-26T07:57:02.265Z,97691.37
2019-03-26T07:58:10.273Z,97686.15
2019-03-26T07:59:18.340Z,97697.58
2019-03-26T08:00:36.380Z,97694.44
2019-03-26T08:01:44.432Z,97690.94
2019-03-26T08:02:52.440Z,97687.44
2019-03-26T08:04:00.474Z,97694.21
2019-03-26T08:05:09.245Z,97693.25
2019-03-26T08:06:17.341Z,97695.73
2019-03-26T08:07:25.347Z,97699.09
2019-03-26T08:08:34.448Z,97698.60
2019-03-26T08:09:42.455Z,97701.52
2019-03-26T08:10:50.476Z,97698.91
2019-03-26T08:11:58.498Z,97697.94
2019-03-26T08:13:06.571Z,97695.67
2019-03-26T08:14:14.721Z,97702.01
2019-03-26T08:15:22.718Z,97702.36
2019-03-26T08:16:30.809Z,97702.19
2019-03-26T08:17:38.859Z,97700.80
2019-03-26T08:18:46.879Z,97704.52
2019-03-26T08:19:54.885Z,97697.91
2019-03-26T08:21:02.951Z,97697.80
2019-03-26T08:22:10.972Z,97697.21
2019-03-26T08:23:19.040Z,97702.17
2019-03-26T08:24:27.124Z,97703.31
2019-03-26T08:25:35.140Z,97697.16
2019-03-26T08:26:43.147Z,97698.34
2019-03-26T08:27:51.174Z,97705.11
2019-03-26T08:29:01.070Z,97700.31
2019-03-26T08:30:10.450Z,97706.25
2019-03-26T08:31:18.547Z,97702.34
2019-03-26T08:32:26.737Z,97702.70
2019-03-26T08:33:34.728Z,97704.78
2019-03-26T08:34:42.791Z,97698.70
2019-03-26T08:35:50.798Z,97696.47
2019-03-26T08:36:58.816Z,97699.78
2019-03-26T08:38:12.931Z,97694.05
2019-03-26T08:39:16.793Z,97700.33
2019-03-26T08:40:24.820Z,97695.53
2019-03-26T08:41:33.365Z,97696.63
2019-03-26T08:42:41.807Z,97693.11
2019-03-26T08:43:49.848Z,97686.23
2019-03-26T08:44:57.853Z,97685.73
2019-03-26T08:46:05.958Z,97685.23
2019-03-26T08:47:13.979Z,97688.98
2019-03-26T08:48:22.002Z,97684.14
2019-03-26T08:49:30.923Z,97684.09
2019-03-26T08:50:39.229Z,97685.27
2019-03-26T08:51:47.266Z,97687.34
2019-03-26T08:52:55.299Z,97685.56
2019-03-26T08:54:03.335Z,97690.57
2019-03-26T08:55:12.096Z,97690.52
2019-03-26T08:56:20.131Z,97681.45
2019-03-26T08:57:29.382Z,97687.44
2019-03-26T08:58:37.642Z,97687.39
2019-03-26T08:59:45.662Z,97688.23
2019-03-26T09:00:53.683Z,97692.88
2019-03-26T09:02:01.781Z,97688.38
2019-03-26T09:03:09.878Z,97692.58
2019-03-26T09:04:17.882Z,97691.63
2019-03-26T09:05:25.903Z,97694.04
2019-03-26T09:06:33.925Z,97694.73
2019-03-26T09:07:41.959Z,97697.15
2019-03-26T09:08:50.009Z,97699.61
2019-03-26T09:09:58.152Z,97695.69
2019-03-26T09:11:06.203Z,97702.83
2019-03-26T09:12:14.239Z,97697.68
2019-03-26T09:13:23.146Z,97708.27
2019-03-26T09:14:31.182Z,97706.08
2019-03-26T09:15:39.219Z,97711.12
2019-03-26T09:16:48.415Z,97714.03
2019-03-26T09:17:58.247Z,97716.92
2019-03-26T09:19:08.011Z,97719.44
2019-03-26T09:20:16.839Z,97721.12
2019-03-26T09:21:25.525Z,97718.55
2019-03-26T09:22:35.820Z,97727.95
2019-03-26T09:23:43.919Z,97727.50
2019-03-26T09:24:52.358Z,97729.24
2019-03-26T09:26:01.221Z,97736.19
2019-03-26T09:27:09.212Z,97731.54
2019-03-26T09:28:17.218Z,97732.91
2019-03-26T09:29:25.299Z,97729.61
2019-03-26T09:30:33.323Z,97726.70
2019-03-26T09:31:41.357Z,97732.35
2019-03-26T09:32:50.447Z,97728.98
2019-03-26T09:33:58.899Z,97729.52
2019-03-26T09:35:07.767Z,97729.88
2019-03-26T09:36:15.800Z,97735.97
2019-03-26T09:37:23.833Z,97735.43
2019-03-26T09:38:38.891Z,97732.30
2019-03-26T09:39:41.626Z,97736.89
2019-03-26T09:40:49.609Z,97738.06
2019-03-26T09:41:57.658Z,97739.22
2019-03-26T09:43:05.669Z,97743.42
2019-03-26T09:44:13.687Z,97739.44
2019-03-26T09:45:21.692Z,97745.77
2019-03-26T09:46:29.713Z,97747.01
2019-03-26T09:47:37.765Z,97749.49
2019-03-26T09:48:45.803Z,97749.49
2019-03-26T09:49:53.806Z,97749.49
2019-03-26T09:51:01.801Z,97746.47
2019-03-26T09:52:09.839Z,97743.50
2019-03-26T09:53:17.885Z,97751.17
2019-03-26T09:54:25.891Z,97741.70
2019-03-26T09:55:33.987Z,97738.63
2019-03-26T09:56:42.003Z,97739.47
2019-03-26T09:57:49.986Z,97741.53
2019-03-26T09:58:58.984Z,97733.75
2019-03-26T10:00:08.578Z,97734.95
2019-03-26T10:01:17.562Z,97735.31
2019-03-26T10:02:25.569Z,97733.22
2019-03-26T10:03:33.571Z,97731.00
2019-03-26T10:04:41.609Z,97731.84
2019-03-26T10:05:49.618Z,97732.67
2019-03-26T10:06:57.635Z,97732.23
2019-03-26T10:08:05.642Z,97725.78
2019-03-26T10:09:14.776Z,97724.88
2019-03-26T10:10:22.795Z,97725.67
2019-03-26T10:11:31.940Z,97723.03
2019-03-26T10:12:39.962Z,97721.18
2019-03-26T10:13:47.985Z,97722.77
2019-03-26T10:14:56.019Z,97722.59
2019-03-26T10:16:04.480Z,97727.19
2019-03-26T10:17:12.481Z,97733.58
2019-03-26T10:18:20.489Z,97724.48
2019-03-26T10:19:28.604Z,97719.33
2019-03-26T10:20:36.965Z,97723.59
2019-03-26T10:21:45.002Z,97722.75
2019-03-26T10:22:53.996Z,97724.79
2019-03-26T10:24:02.008Z,97726.08
2019-03-26T10:25:11.430Z,97726.47
2019-03-26T10:26:21.005Z,97722.16
2019-03-26T10:27:29.702Z,97724.34
2019-03-26T10:28:38.906Z,97721.37
2019-03-26T10:29:46.927Z,97725.62
2019-03-26T10:30:55.084Z,97730.78
2019-03-26T10:32:03.107Z,97723.50
2019-03-26T10:33:13.449Z,97726.02
2019-03-26T10:34:21.576Z,97735.83
2019-03-26T10:35:31.179Z,97736.16
2019-03-26T10:36:41.508Z,97730.55
2019-03-26T10:37:49.225Z,97739.46
2019-03-26T10:39:05.598Z,97732.69
2019-03-26T10:40:07.853Z,97730.55
2019-03-26T10:41:18.724Z,97738.29
2019-03-26T10:42:26.591Z,97729.32
2019-03-26T10:43:34.627Z,97728.54
2019-03-26T10:44:42.649Z,97722.59
2019-03-26T10:45:50.866Z,97732.52
2019-03-26T10:46:58.890Z,97723.11
2019-03-26T10:48:07.387Z,97736.94
2019-03-26T10:49:15.423Z,97731.77
2019-03-26T10:50:23.467Z,97730.48
2019-03-26T10:51:31.514Z,97729.95
2019-03-26T10:52:39.503Z,97720.86
2019-03-26T10:53:47.539Z,97719.91
2019-03-26T10:54:55.560Z,97721.46
2019-03-26T10:56:03.583Z,97719.66
2019-03-26T10:57:11.707Z,97716.09
2019-03-26T10:58:19.732Z,97715.58
2019-03-26T10:59:27.740Z,97705.53
2019-03-26T11:00:35.834Z,97724.31
2019-03-26T11:01:43.867Z,97710.42
2019-03-26T11:02:54.092Z,97711.64
2019-03-26T11:04:01.577Z,97710.62
2019-03-26T11:05:09.823Z,97710.56
2019-03-26T11:06:17.873Z,97710.11
2019-03-26T11:07:25.942Z,97705.73
2019-03-26T11:08:33.915Z,97696.99
2019-03-26T11:09:41.952Z,97698.09
2019-03-26T11:10:50.018Z,97694.88
2019-03-26T11:11:58.039Z,97704.02
2019-03-26T11:13:06.059Z,97696.08
2019-03-26T11:14:14.085Z,97694.57
2019-03-26T11:15:22.178Z,97696.58
2019-03-26T11:16:30.195Z,97702.06
2019-03-26T11:17:38.324Z,97705.88
2019-03-26T11:18:46.329Z,97710.13
2019-03-26T11:19:54.411Z,97714.07
2019-03-26T11:21:03.380Z,97713.68
2019-03-26T11:22:11.881Z,97707.74
2019-03-26T11:23:19.888Z,97711.29
2019-03-26T11:24:27.906Z,97711.00
2019-03-26T11:25:36.243Z,97710.22
2019-03-26T11:26:44.277Z,97711.97
2019-03-26T11:27:52.297Z,97707.31
2019-03-26T11:29:00.318Z,97711.64
2019-03-26T11:30:09.680Z,97705.63
2019-03-26T11:31:17.696Z,97709.89
2019-03-26T11:32:26.187Z,97710.80
2019-03-26T11:33:34.236Z,97712.48
2019-03-26T11:34:42.343Z,97715.45
2019-03-26T11:35:51.792Z,97712.35
2019-03-26T11:36:59.781Z,97714.39
2019-03-26T11:38:07.914Z,97710.00
2019-03-26T11:39:15.929Z,97718.91
2019-03-26T11:40:23.942Z,97713.68
2019-03-26T11:41:32.196Z,97715.81
2019-03-26T11:42:40.201Z,97708.13
2019-03-26T11:43:48.215Z,97712.00
2019-03-26T11:44:59.278Z,97710.77
2019-03-26T11:46:05.930Z,97704.77
2019-03-26T11:47:13.981Z,97703.94
2019-03-26T11:48:23.187Z,97707.74
2019-03-26T11:49:31.198Z,97702.97
2019-03-26T11:50:40.161Z,97699.03
2019-03-26T11:51:49.291Z,97695.61
2019-03-26T11:52:57.418Z,97709.36
2019-03-26T11:54:05.469Z,97699.42
2019-03-26T11:55:13.818Z,97704.97
2019-03-26T11:56:21.827Z,97704.45
2019-03-26T11:57:29.837Z,97707.33
2019-03-26T11:58:37.868Z,97704.69
2019-03-26T11:59:45.873Z,97701.58
2019-03-26T12:00:54.943Z,97698.48
2019-03-26T12:02:02.969Z,97705.78
2019-03-26T12:03:11.036Z,97697.91
2019-03-26T12:04:19.036Z,97701.26
2019-03-26T12:05:27.030Z,97696.84
2019-03-26T12:06:35.083Z,97694.90
2019-03-26T12:07:43.263Z,97694.25
2019-03-26T12:08:51.259Z,97698.73
2019-03-26T12:09:59.307Z,97703.31
2019-03-26T12:11:07.344Z,97700.66
2019-03-26T12:12:15.874Z,97701.19
2019-03-26T12:13:23.985Z,97700.80
2019-03-26T12:14:32.008Z,97705.64
2019-03-26T12:15:40.027Z,97698.41
2019-03-26T12:16:48.062Z,97695.54
2019-03-26T12:17:56.101Z,97695.60
2019-03-26T12:19:04.155Z,97694.77
2019-03-26T12:20:12.681Z,97695.16
2019-03-26T12:21:20.681Z,97696.83
2019-03-26T12:22:31.308Z,97699.03
2019-03-26T12:23:38.410Z,97696.05
2019-03-26T12:24:46.430Z,97706.91
2019-03-26T12:25:54.453Z,97697.16
2019-03-26T12:27:02.613Z,97701.26
2019-03-26T12:28:10.616Z,97696.22
2019-03-26T12:29:18.650Z,97695.06
2019-03-26T12:30:38.314Z,97696.87
2019-03-26T12:31:46.381Z,97694.41
2019-03-26T12:32:54.371Z,97690.44
2019-03-26T12:34:03.699Z,97695.28
2019-03-26T12:35:23.406Z,97690.95
2019-03-26T12:36:39.945Z,97694.31
2019-03-26T12:37:41.174Z,97696.06
2019-03-26T12:38:49.180Z,97693.86
2019-03-26T12:39:59.745Z,97689.02
2019-03-26T12:41:07.981Z,97692.28
2019-03-26T12:42:16.123Z,97699.45
2019-03-26T12:43:24.145Z,97691.58
2019-03-26T12:44:32.144Z,97691.73
2019-03-26T12:45:40.174Z,97681.66
2019-03-26T12:46:48.207Z,97679.33
2019-03-26T12:47:56.242Z,97684.20
2019-03-26T12:49:04.264Z,97691.69
2019-03-26T12:50:13.350Z,97689.39
2019-03-26T12:51:21.391Z,97687.55
2019-03-26T12:52:29.423Z,97680.63
2019-03-26T12:53:37.503Z,97686.57
2019-03-26T12:54:45.555Z,97679.27
2019-03-26T12:55:53.545Z,97675.01
2019-03-26T12:57:01.566Z,97671.59
2019-03-26T12:58:09.617Z,97675.47
2019-03-26T12:59:17.640Z,97672.30
2019-03-26T13:00:33.971Z,97676.03
2019-03-26T13:01:42.009Z,97675.06
2019-03-26T13:02:50.043Z,97674.89
2019-03-26T13:04:11.625Z,97664.03
2019-03-26T13:05:07.962Z,97671.65
2019-03-26T13:06:16.177Z,97675.91
2019-03-26T13:07:25.281Z,97672.80
2019-03-26T13:08:33.314Z,97670.16
2019-03-26T13:09:42.024Z,97671.45
2019-03-26T13:10:53.891Z,97677.91
2019-03-26T13:12:00.008Z,97673.19
2019-03-26T13:13:07.997Z,97670.61
2019-03-26T13:14:16.108Z,97669.70
2019-03-26T13:15:24.142Z,97672.67
2019-03-26T13:16:32.240Z,97670.08
2019-03-26T13:17:40.258Z,97665.37
2019-03-26T13:18:48.294Z,97658.52
2019-03-26T13:19:56.302Z,97668.22
2019-03-26T13:21:04.355Z,97659.70
2019-03-26T13:22:12.379Z,97667.59
2019-03-26T13:23:20.380Z,97660.01